Kushchevskaya, Russia
Current Conditions -  °F | °C
As of 2:00 PM on Friday 31 Oct 2014 (Local Time) from URRR Reporting Station
Broken Clouds Broken Clouds  
Wind Chill: 52°   Ceiling: 1600
Heat Index: 52°   Visibility: 6mi
Dew Point: 43°   Wind: 16mph
Humidity: 71%   Direction: 90°E
Pressure: 30.03"   Gusts: NA
Location:  46.56°N, 39.64°E
Report Text: URRR 311100Z 09007MPS 9999 BKN016 BKN100 11/06 Q1017 04CLRD70NOSIG
Loading
Personal Weather Stations






























Interactive Weather Map
Tropical Storm Tracking
New forecast layout! Learn more

10-Day Weather Forecast

Advertisements
Track Severe Weather on mobile